Time;durP1;ratioP1;P1;durP2;ratioP2;P2;SDS_P1;SDS_P2;PMS_P1;PMS_P2;Temp;Humidity;BMP_temperature;BMP_pressure;BME280_temperature;BME280_humidity;BME280_pressure;Samples;Min_cycle;Max_cycle;Signal;HPM_P1;HPM_P2
2021/07/29 00:01:01;;;;;;;18.42;14.80;;;;;;;19.60;88.71;99632.45;1710287;84;21057;-86
2021/07/29 00:03:28;;;;;;;17.10;13.08;;;;;;;19.60;89.19;99631.12;1708809;83;21088;-79
2021/07/29 00:05:55;;;;;;;26.20;16.55;;;;;;;19.60;88.16;99629.78;1708909;83;21054;-88
2021/07/29 00:08:22;;;;;;;22.52;16.12;;;;;;;19.59;89.06;99630.78;1709749;83;21179;-87
2021/07/29 00:10:51;;;;;;;23.20;16.00;;;;;;;19.57;89.40;99628.22;1709760;83;21088;-86
2021/07/29 00:13:18;;;;;;;24.67;17.05;;;;;;;19.54;89.69;99630.31;1709865;84;21041;-89
2021/07/29 00:15:47;;;;;;;23.90;16.17;;;;;;;19.53;90.13;99620.59;1709321;83;21069;-89
2021/07/29 00:20:42;;;;;;;28.98;16.62;;;;;;;19.47;90.71;99624.13;1709398;83;21117;-90
2021/07/29 00:23:08;;;;;;;22.42;16.87;;;;;;;19.42;90.79;99625.00;1709055;83;21580;-88
2021/07/29 00:25:36;;;;;;;24.70;16.17;;;;;;;19.39;90.90;99624.39;1709371;82;21046;-91
2021/07/29 00:28:03;;;;;;;17.77;12.40;;;;;;;19.37;90.51;99628.55;1680527;85;21069;-88
2021/07/29 00:30:30;;;;;;;15.05;11.65;;;;;;;19.37;90.00;99625.88;1647870;87;21073;-90
2021/07/29 00:32:57;;;;;;;14.20;11.05;;;;;;;19.36;89.88;99630.83;1617380;88;21900;-88
2021/07/29 00:35:24;;;;;;;22.80;15.58;;;;;;;19.35;88.60;99630.95;1628273;88;21086;-88
2021/07/29 00:37:55;;;;;;;16.80;13.72;;;;;;;19.32;88.50;99638.72;1628527;87;21093;-91
2021/07/29 00:40:22;;;;;;;11.55;9.78;;;;;;;19.26;88.37;99640.58;1627361;88;21053;-89
2021/07/29 00:42:49;;;;;;;16.87;11.85;;;;;;;19.21;88.51;99637.41;1645346;87;21067;-88
2021/07/29 00:45:16;;;;;;;12.20;9.63;;;;;;;19.17;88.39;99639.98;1645284;87;21541;-88
2021/07/29 00:47:43;;;;;;;18.90;13.48;;;;;;;19.14;87.75;99638.88;1645575;87;21102;-87
2021/07/29 00:50:13;;;;;;;24.23;15.83;;;;;;;19.11;88.26;99635.97;1645468;86;21478;-88
2021/07/29 00:52:40;;;;;;;20.32;15.50;;;;;;;19.07;88.64;99632.72;1646273;87;21050;-88
2021/07/29 00:55:08;;;;;;;22.80;16.05;;;;;;;19.05;89.17;99635.16;1660784;86;21024;-86
2021/07/29 00:57:35;;;;;;;22.40;17.23;;;;;;;19.04;89.82;99626.77;1673316;85;21865;-86
2021/07/29 01:00:03;;;;;;;20.48;16.25;;;;;;;19.04;91.16;99620.94;1660358;85;21049;-89
2021/07/29 01:02:30;;;;;;;21.30;15.63;;;;;;;19.03;91.79;99621.92;1629393;88;21111;-87
2021/07/29 01:04:58;;;;;;;25.70;17.55;;;;;;;19.03;91.59;99631.27;1654902;86;21079;-86
2021/07/29 01:07:25;;;;;;;23.60;16.65;;;;;;;19.05;91.64;99624.48;1628827;88;21072;-89
2021/07/29 01:09:52;;;;;;;25.90;18.00;;;;;;;19.05;91.43;99627.98;1655987;86;21155;-89
2021/07/29 01:12:19;;;;;;;23.12;17.50;;;;;;;19.07;91.52;99631.39;1628244;88;21103;-89
2021/07/29 01:14:47;;;;;;;24.27;17.75;;;;;;;19.10;91.55;99624.11;1625767;88;21101;-91
2021/07/29 01:17:14;;;;;;;23.45;14.28;;;;;;;19.06;91.56;99624.34;1679211;85;21137;-86
2021/07/29 01:19:41;;;;;;;15.60;11.22;;;;;;;19.03;91.60;99619.25;1678667;85;21065;-86
2021/07/29 01:22:08;;;;;;;21.25;15.13;;;;;;;19.03;90.96;99629.09;1678249;85;21144;-84
2021/07/29 01:24:36;;;;;;;23.42;16.90;;;;;;;19.01;91.11;99623.86;1678220;84;21030;-85
2021/07/29 01:27:04;;;;;;;24.85;17.12;;;;;;;19.03;91.69;99631.27;1678027;84;21600;-85
2021/07/29 01:29:31;;;;;;;18.98;13.43;;;;;;;19.02;92.05;99630.04;1678779;85;21125;-89
2021/07/29 01:31:57;;;;;;;25.48;17.23;;;;;;;19.02;91.85;99634.05;1678492;85;21089;-88
2021/07/29 01:34:25;;;;;;;22.48;17.45;;;;;;;19.01;91.95;99626.53;1679022;85;21788;-89
2021/07/29 01:36:52;;;;;;;24.10;17.05;;;;;;;18.99;92.05;99635.14;1678108;85;21088;-83
2021/07/29 01:39:19;;;;;;;22.45;16.27;;;;;;;18.95;92.26;99627.02;1678325;85;21128;-86
2021/07/29 01:41:46;;;;;;;27.50;17.70;;;;;;;18.96;92.00;99633.22;1678481;85;21022;-86
2021/07/29 01:44:13;;;;;;;28.47;17.48;;;;;;;18.94;92.24;99630.66;1679197;84;21129;-89
2021/07/29 01:46:40;;;;;;;26.68;16.57;;;;;;;18.96;92.69;99632.73;1680489;85;21495;-89
2021/07/29 01:49:07;;;;;;;22.37;15.93;;;;;;;18.96;92.73;99635.40;1678892;85;21061;-86
2021/07/29 01:51:34;;;;;;;25.85;17.98;;;;;;;18.96;92.39;99640.73;1679004;85;21034;-85
2021/07/29 01:54:01;;;;;;;28.75;17.15;;;;;;;18.94;92.76;99641.34;1678507;84;22067;-85
2021/07/29 01:56:30;;;;;;;22.35;16.42;;;;;;;18.93;93.12;99636.11;1678308;85;21348;-85
2021/07/29 01:58:56;;;;;;;23.75;16.57;;;;;;;18.89;93.34;99639.53;1678113;85;21151;-85
2021/07/29 02:01:24;;;;;;;22.87;16.67;;;;;;;18.86;93.46;99646.42;1678234;84;21557;-85
2021/07/29 02:03:51;;;;;;;21.75;16.12;;;;;;;18.81;93.77;99642.78;1678213;85;21066;-85
2021/07/29 02:06:18;;;;;;;18.07;13.85;;;;;;;18.78;93.96;99643.03;1678423;84;21058;-85
2021/07/29 02:08:49;;;;;;;13.60;10.25;;;;;;;18.76;93.91;99650.77;1678243;84;21038;-86
2021/07/29 02:11:16;;;;;;;27.65;15.88;;;;;;;18.76;93.66;99640.09;1678810;85;21345;-85
2021/07/29 02:13:43;;;;;;;23.18;16.57;;;;;;;18.75;93.78;99645.05;1678030;85;21624;-84
2021/07/29 02:16:12;;;;;;;19.40;13.35;;;;;;;18.76;94.33;99648.09;1678430;85;21137;-82
2021/07/29 02:18:39;;;;;;;21.05;14.83;;;;;;;18.75;94.24;99649.05;1678316;84;21463;-86
2021/07/29 02:21:11;;;;;;;24.37;16.07;;;;;;;18.72;93.65;99651.97;1678726;84;21616;-86
2021/07/29 02:23:38;;;;;;;21.15;16.02;;;;;;;18.71;93.70;99648.95;1678585;85;21918;-85
2021/07/29 02:26:05;;;;;;;25.97;16.27;;;;;;;18.73;94.05;99649.68;1678211;85;21567;-85
2021/07/29 02:28:32;;;;;;;26.02;17.65;;;;;;;18.74;94.26;99651.37;1678158;85;21045;-84
2021/07/29 02:31:00;;;;;;;27.22;15.43;;;;;;;18.75;94.74;99651.72;1678255;85;21039;-83
2021/07/29 02:33:27;;;;;;;23.38;16.48;;;;;;;18.77;94.12;99653.81;1678368;84;21600;-84
2021/07/29 02:35:54;;;;;;;26.40;17.32;;;;;;;18.79;94.34;99649.21;1678204;85;21118;-85
2021/07/29 02:38:20;;;;;;;22.73;16.07;;;;;;;18.80;94.77;99645.59;1678487;85;21054;-82
2021/07/29 02:40:47;;;;;;;26.02;16.32;;;;;;;18.79;95.12;99645.21;1678874;85;21624;-83
2021/07/29 02:43:15;;;;;;;23.52;16.57;;;;;;;18.80;95.33;99647.77;1678123;85;21078;-86
2021/07/29 02:45:42;;;;;;;25.43;15.88;;;;;;;18.81;95.15;99639.27;1650848;86;21090;-79
2021/07/29 02:48:08;;;;;;;24.35;16.42;;;;;;;18.84;95.13;99641.69;1650846;86;21106;-79
2021/07/29 02:50:35;;;;;;;29.20;16.35;;;;;;;18.88;94.96;99635.64;1650709;86;21122;-80
2021/07/29 02:53:03;;;;;;;22.13;15.80;;;;;;;18.89;94.87;99630.19;1651141;86;21038;-84
2021/07/29 02:55:30;;;;;;;26.77;16.62;;;;;;;18.90;95.14;99623.87;1677758;85;21042;-91
2021/07/29 02:57:57;;;;;;;18.20;12.33;;;;;;;18.91;95.42;99622.91;1679940;85;21038;-90
2021/07/29 03:00:24;;;;;;;24.70;14.38;;;;;;;18.93;95.38;99622.28;1679768;84;21197;-89
2021/07/29 03:02:53;;;;;;;18.32;12.25;;;;;;;18.97;95.01;99625.07;1679364;85;21073;-87
2021/07/29 03:05:20;;;;;;;19.48;13.15;;;;;;;19.00;94.81;99616.84;1678731;85;21054;-84
2021/07/29 03:07:48;;;;;;;23.32;16.42;;;;;;;19.07;94.55;99623.84;1678547;85;21109;-86
2021/07/29 03:10:17;;;;;;;22.95;16.55;;;;;;;19.12;94.75;99609.66;1678458;85;21545;-84
2021/07/29 03:12:46;;;;;;;23.30;16.35;;;;;;;19.18;95.16;99608.30;1678465;85;21098;-85
2021/07/29 03:15:14;;;;;;;23.90;16.40;;;;;;;19.23;95.40;99604.77;1678595;85;21069;-85
2021/07/29 03:17:41;;;;;;;24.65;16.23;;;;;;;19.32;95.35;99608.02;1678708;85;21125;-87
2021/07/29 03:20:10;;;;;;;23.05;15.65;;;;;;;19.40;94.83;99598.91;1678604;85;21576;-76
2021/07/29 03:22:37;;;;;;;24.75;16.27;;;;;;;19.49;94.65;99595.98;1678240;85;21695;-77
2021/07/29 03:25:06;;;;;;;26.00;16.25;;;;;;;19.60;94.74;99597.73;1671307;84;21097;-75
2021/07/29 03:27:35;;;;;;;26.12;15.98;;;;;;;19.74;94.58;99602.84;1650629;86;21100;-77
2021/07/29 03:30:02;;;;;;;20.82;13.62;;;;;;;19.87;94.24;99599.96;1650594;86;21501;-76
2021/07/29 03:32:29;;;;;;;21.35;13.18;;;;;;;20.01;93.50;99604.14;1650591;86;22299;-77
2021/07/29 03:34:57;;;;;;;25.75;14.90;;;;;;;20.16;93.32;99597.50;1650819;86;21069;-77
2021/07/29 03:37:25;;;;;;;24.98;14.83;;;;;;;20.39;92.35;99602.70;1650500;86;21148;-78
2021/07/29 03:39:53;;;;;;;19.23;14.28;;;;;;;20.72;91.16;99593.59;1650119;86;22283;-77
2021/07/29 03:42:22;;;;;;;24.47;14.23;;;;;;;21.24;89.64;99601.00;1650249;86;21577;-77
2021/07/29 03:44:49;;;;;;;19.07;12.15;;;;;;;21.77;86.96;99600.66;1649708;86;21049;-77
2021/07/29 03:47:17;;;;;;;21.48;15.45;;;;;;;22.32;84.07;99592.00;1650709;85;21135;-79
2021/07/29 03:49:45;;;;;;;24.55;16.50;;;;;;;22.82;82.16;99584.97;1650462;86;21171;-77
2021/07/29 03:52:12;;;;;;;23.22;15.48;;;;;;;23.25;79.51;99579.94;1646589;85;21547;-78
2021/07/29 03:54:39;;;;;;;25.45;16.30;;;;;;;23.64;78.52;99584.52;1650874;85;21085;-82
2021/07/29 03:57:11;;;;;;;20.90;16.12;;;;;;;24.04;76.45;99583.70;1651112;86;21178;-81
2021/07/29 03:59:38;;;;;;;23.38;15.45;;;;;;;24.39;74.51;99577.39;1630737;84;21061;-82
2021/07/29 04:02:12;;;;;;;28.50;14.23;;;;;;;24.78;73.02;99583.69;1678505;85;21736;-81
2021/07/29 04:04:39;;;;;;;26.07;14.98;;;;;;;25.14;71.84;99582.12;1678254;84;21113;-80
2021/07/29 04:07:07;;;;;;;19.42;14.28;;;;;;;25.56;70.43;99571.81;1678741;85;21106;-82
2021/07/29 04:09:36;;;;;;;23.77;14.10;;;;;;;25.95;68.95;99569.80;1678226;84;21062;-79
2021/07/29 04:12:04;;;;;;;19.32;14.43;;;;;;;26.08;65.83;99571.48;1672895;84;21082;-80
2021/07/29 04:14:32;;;;;;;26.55;15.88;;;;;;;25.66;65.85;99575.17;1689199;83;21158;-80
2021/07/29 04:16:59;;;;;;;23.25;15.70;;;;;;;25.41;67.65;99577.50;1680933;84;21069;-83
2021/07/29 04:19:25;;;;;;;28.62;17.25;;;;;;;25.46;66.30;99573.80;1685398;83;21536;-80
2021/07/29 04:21:52;;;;;;;30.70;20.50;;;;;;;25.67;66.00;99574.14;1696719;83;21041;-81
2021/07/29 04:24:19;;;;;;;35.60;23.70;;;;;;;25.92;67.54;99576.89;1685374;83;21078;-81
2021/07/29 04:26:46;;;;;;;39.15;25.48;;;;;;;26.08;65.97;99576.88;1678516;85;21130;-81
2021/07/29 04:29:13;;;;;;;40.08;26.85;;;;;;;26.27;66.02;99576.17;1688997;83;21668;-82
2021/07/29 04:31:40;;;;;;;40.63;28.38;;;;;;;26.38;64.58;99573.11;1678388;85;21074;-81
2021/07/29 04:34:07;;;;;;;47.23;30.50;;;;;;;26.52;64.65;99573.73;1678102;85;21053;-82
2021/07/29 04:36:41;;;;;;;45.58;26.73;;;;;;;26.54;64.62;99574.45;1678394;85;21050;-82
2021/07/29 04:39:08;;;;;;;40.33;24.47;;;;;;;26.35;65.27;99568.06;1678190;84;21203;-82
2021/07/29 04:41:40;;;;;;;37.95;22.77;;;;;;;26.13;65.32;99566.41;1678054;84;21110;-82
2021/07/29 04:44:09;;;;;;;29.72;22.22;;;;;;;26.05;65.86;99563.73;1678318;84;21058;-82
2021/07/29 04:46:37;;;;;;;25.23;20.20;;;;;;;25.97;66.14;99565.08;1679253;83;21503;-83
2021/07/29 04:49:04;;;;;;;27.25;20.57;;;;;;;26.08;65.44;99576.88;1678105;85;21093;-82
2021/07/29 04:51:38;;;;;;;28.42;20.85;;;;;;;26.36;64.86;99569.73;1678155;84;21360;-81
2021/07/29 04:54:06;;;;;;;29.00;19.52;;;;;;;26.59;65.03;99571.22;1677882;85;21593;-81
2021/07/29 04:56:33;;;;;;;30.97;20.30;;;;;;;26.85;62.96;99574.16;1678324;84;21068;-81
2021/07/29 04:59:00;;;;;;;24.95;17.85;;;;;;;27.08;62.75;99563.41;1678905;84;21605;-81
2021/07/29 05:01:26;;;;;;;24.77;17.32;;;;;;;27.40;60.46;99568.67;1677593;83;21128;-80
2021/07/29 05:03:53;;;;;;;26.57;15.70;;;;;;;27.70;58.63;99574.20;1678418;85;22169;-81
2021/07/29 05:06:20;;;;;;;27.32;17.80;;;;;;;28.01;57.78;99573.29;1678934;85;21008;-80
2021/07/29 05:08:48;;;;;;;23.02;15.75;;;;;;;28.32;56.63;99560.12;1678750;84;21513;-80
2021/07/29 05:11:15;;;;;;;26.97;15.30;;;;;;;28.66;53.62;99557.72;1680267;85;21073;-80
2021/07/29 05:13:42;;;;;;;23.98;17.10;;;;;;;29.03;53.34;99562.70;1683073;85;21030;-80
2021/07/29 05:16:09;;;;;;;20.37;15.48;;;;;;;29.36;52.60;99559.54;1683041;85;21105;-81
2021/07/29 05:18:37;;;;;;;23.95;15.55;;;;;;;29.63;52.64;99555.23;1683161;85;20924;-81
2021/07/29 05:21:06;;;;;;;25.08;14.90;;;;;;;29.88;52.18;99557.02;1682995;82;20967;-81
2021/07/29 05:23:34;;;;;;;23.07;14.47;;;;;;;30.14;51.57;99565.08;1682818;82;20959;-82
2021/07/29 05:26:01;;;;;;;24.77;14.95;;;;;;;30.16;49.51;99555.35;1682647;82;21094;-82
2021/07/29 05:28:28;;;;;;;26.02;14.60;;;;;;;30.03;49.55;99558.30;1682968;85;21149;-81
2021/07/29 05:30:55;;;;;;;28.75;16.42;;;;;;;29.87;50.08;99559.42;1680915;85;21061;-82
2021/07/29 05:33:22;;;;;;;28.20;15.45;;;;;;;29.67;50.67;99559.73;1678452;84;21078;-81
2021/07/29 05:35:49;;;;;;;22.93;15.13;;;;;;;29.48;51.14;99557.98;1678479;85;21070;-80
2021/07/29 05:38:16;;;;;;;23.07;13.10;;;;;;;29.35;51.31;99563.79;1678412;84;21096;-83
2021/07/29 05:40:43;;;;;;;21.35;14.18;;;;;;;29.27;50.58;99560.69;1678686;84;21913;-83
2021/07/29 05:43:12;;;;;;;27.48;14.00;;;;;;;29.25;50.73;99558.16;1678566;85;21135;-83
2021/07/29 05:45:39;;;;;;;21.80;14.50;;;;;;;29.25;50.94;99560.05;1678550;85;21121;-83
2021/07/29 05:48:07;;;;;;;20.40;13.70;;;;;;;29.29;51.32;99558.63;1677719;85;21678;-84
2021/07/29 05:50:34;;;;;;;20.80;13.15;;;;;;;29.38;50.60;99554.77;1677957;84;21054;-82
2021/07/29 05:53:01;;;;;;;22.45;12.03;;;;;;;29.71;49.31;99543.42;1677621;84;21161;-83
2021/07/29 05:55:28;;;;;;;24.27;12.88;;;;;;;30.19;48.22;99542.23;1677358;84;21070;-83
2021/07/29 05:57:55;;;;;;;21.23;10.65;;;;;;;30.80;47.21;99538.81;1673654;84;21578;-83
2021/07/29 06:00:23;;;;;;;18.15;10.80;;;;;;;31.28;43.89;99542.88;1679003;84;21555;-84
2021/07/29 06:02:49;;;;;;;14.98;11.08;;;;;;;31.68;43.42;99547.56;1671424;85;21082;-84
2021/07/29 06:05:17;;;;;;;16.37;9.15;;;;;;;32.00;41.52;99545.09;1675836;85;21808;-84
2021/07/29 06:07:44;;;;;;;14.75;9.48;;;;;;;32.25;39.33;99538.47;1674798;84;21090;-83
2021/07/29 06:10:11;;;;;;;17.23;10.13;;;;;;;32.40;39.41;99543.16;1665179;85;21413;-82
2021/07/29 06:12:38;;;;;;;15.43;9.60;;;;;;;32.47;39.95;99545.34;1671983;85;21045;-84
2021/07/29 06:15:07;;;;;;;15.43;9.10;;;;;;;32.68;39.49;99549.70;1674712;85;21557;-83
2021/07/29 06:17:36;;;;;;;9.90;7.67;;;;;;;32.95;38.07;99546.88;1675342;84;21554;-84
2021/07/29 06:20:05;;;;;;;14.55;8.75;;;;;;;33.10;36.36;99547.98;1674503;84;21719;-83
2021/07/29 06:22:32;;;;;;;11.35;7.75;;;;;;;33.29;37.01;99543.46;1671375;85;21098;-83
2021/07/29 06:24:59;;;;;;;14.23;8.55;;;;;;;33.58;36.37;99537.41;1674584;85;21117;-84
2021/07/29 06:27:28;;;;;;;17.70;8.38;;;;;;;33.77;35.42;99532.02;1676067;84;21026;-83
2021/07/29 06:29:54;;;;;;;11.43;7.40;;;;;;;33.85;35.84;99526.29;1670920;85;21637;-83
2021/07/29 06:32:21;;;;;;;17.45;8.88;;;;;;;33.97;35.84;99525.86;1672984;85;21110;-84
2021/07/29 06:34:49;;;;;;;25.37;9.68;;;;;;;34.11;35.02;99521.67;1673850;85;21031;-82
2021/07/29 06:37:18;;;;;;;15.03;8.00;;;;;;;34.10;35.81;99520.02;1602879;88;48145;-84
2021/07/29 06:39:45;;;;;;;14.45;7.90;;;;;;;34.18;35.42;99518.34;1603341;89;21158;-82
2021/07/29 06:42:13;;;;;;;15.50;8.63;;;;;;;34.32;34.74;99517.66;1603046;89;21569;-85
2021/07/29 06:44:45;;;;;;;11.05;7.92;;;;;;;34.41;34.62;99514.40;1602882;89;21610;-83
2021/07/29 06:47:18;;;;;;;14.07;8.38;;;;;;;34.45;34.38;99508.78;1602281;89;21144;-83
2021/07/29 06:49:45;;;;;;;11.38;7.80;;;;;;;34.59;35.08;99507.27;1602836;89;21177;-85
2021/07/29 06:52:14;;;;;;;16.85;8.83;;;;;;;34.73;34.09;99508.80;1593723;89;21116;-84
2021/07/29 06:54:42;;;;;;;10.53;7.40;;;;;;;34.68;34.78;99510.03;1602506;89;21181;-84
2021/07/29 06:57:09;;;;;;;16.55;8.23;;;;;;;34.74;34.28;99507.75;1599480;89;21051;-84
2021/07/29 06:59:36;;;;;;;19.10;8.45;;;;;;;34.91;34.45;99504.38;1600830;89;21059;-84
2021/07/29 07:02:05;;;;;;;21.27;9.33;;;;;;;34.97;33.44;99503.43;1601365;86;21132;-83
2021/07/29 07:04:32;;;;;;;9.03;7.30;;;;;;;34.83;34.13;99500.90;1597084;89;21141;-86
2021/07/29 07:06:59;;;;;;;15.20;8.13;;;;;;;34.62;33.66;99502.19;1619288;87;21199;-83
2021/07/29 07:09:30;;;;;;;9.85;7.42;;;;;;;34.54;34.55;99497.56;1607067;88;21276;-85
2021/07/29 07:11:57;;;;;;;11.20;6.60;;;;;;;34.39;32.78;99495.19;1623771;87;21664;-83
2021/07/29 07:14:24;;;;;;;13.40;6.78;;;;;;;34.01;33.55;99491.58;1621840;88;21151;-84
2021/07/29 07:16:51;;;;;;;13.35;7.60;;;;;;;33.68;34.24;99498.69;1619846;87;21147;-86
2021/07/29 07:19:20;;;;;;;17.27;7.58;;;;;;;33.45;34.79;99496.53;1615884;87;21197;-83
2021/07/29 07:21:46;;;;;;;17.57;7.92;;;;;;;33.23;34.78;99502.36;1622139;87;21060;-83
2021/07/29 07:24:14;;;;;;;11.78;7.75;;;;;;;33.05;36.20;99495.45;1615241;88;21115;-83
2021/07/29 07:26:41;;;;;;;13.93;8.10;;;;;;;32.97;36.43;99495.69;1622228;88;21088;-83
2021/07/29 07:29:09;;;;;;;12.65;8.78;;;;;;;32.97;37.00;99499.78;1616336;87;21075;-83
2021/07/29 07:31:37;;;;;;;10.53;9.00;;;;;;;32.88;37.26;99503.28;1605713;88;21161;-83
2021/07/29 07:34:04;;;;;;;11.65;9.10;;;;;;;32.80;37.83;99503.52;1632968;87;21127;-82
2021/07/29 07:36:30;;;;;;;16.87;9.40;;;;;;;32.70;37.67;99495.81;1618861;88;21612;-83
2021/07/29 07:38:57;;;;;;;18.52;9.73;;;;;;;32.65;38.01;99494.27;1618988;88;21078;-83
2021/07/29 07:41:24;;;;;;;12.40;9.73;;;;;;;32.62;38.75;99491.95;1601893;88;21099;-84
2021/07/29 07:43:52;;;;;;;22.25;9.68;;;;;;;32.70;38.95;99493.08;1620422;88;21091;-83
2021/07/29 07:46:20;;;;;;;19.73;8.65;;;;;;;32.78;38.95;99491.48;1618799;87;21096;-83
2021/07/29 07:48:48;;;;;;;10.30;8.13;;;;;;;32.79;38.74;99490.95;1608709;88;21091;-83
2021/07/29 07:51:16;;;;;;;11.65;8.50;;;;;;;32.67;38.17;99483.98;1620839;87;22243;-83
2021/07/29 07:53:43;;;;;;;14.65;9.05;;;;;;;32.58;38.68;99482.55;1613717;87;21111;-83
2021/07/29 07:56:11;;;;;;;13.88;8.38;;;;;;;32.44;39.15;99480.38;1623101;87;21430;-83
2021/07/29 07:58:38;;;;;;;15.72;9.68;;;;;;;32.27;39.69;99486.80;1622579;87;22169;-84
2021/07/29 08:01:05;;;;;;;12.78;9.35;;;;;;;32.17;40.23;99480.44;1621773;87;21180;-84
2021/07/29 08:03:32;;;;;;;18.10;9.88;;;;;;;32.12;39.88;99480.78;1628943;87;21104;-83
2021/07/29 08:06:03;;;;;;;13.15;9.38;;;;;;;32.14;39.96;99478.66;1623529;87;21111;-84
2021/07/29 08:08:30;;;;;;;20.15;10.75;;;;;;;32.17;40.25;99476.89;1629285;87;21178;-82
2021/07/29 08:10:57;;;;;;;15.05;9.50;;;;;;;32.43;40.50;99476.49;1632647;86;21044;-83
2021/07/29 08:13:24;;;;;;;17.05;9.60;;;;;;;32.92;39.89;99479.12;1629509;87;21100;-83
2021/07/29 08:15:55;;;;;;;17.92;10.15;;;;;;;33.29;38.56;99476.11;1631347;87;21094;-83
2021/07/29 08:18:23;;;;;;;13.50;10.05;;;;;;;33.63;38.35;99482.15;1607621;87;21077;-82
2021/07/29 08:20:52;;;;;;;15.00;9.70;;;;;;;33.88;37.51;99479.41;1635101;86;21059;-84
2021/07/29 08:23:21;;;;;;;12.63;8.83;;;;;;;34.19;36.85;99469.48;1637178;85;21057;-83
2021/07/29 08:25:48;;;;;;;12.43;8.70;;;;;;;34.41;36.38;99463.00;1649428;86;21158;-81
2021/07/29 08:28:15;;;;;;;11.18;7.87;;;;;;;34.39;35.61;99471.42;1636672;85;21108;-83
2021/07/29 08:30:42;;;;;;;9.93;8.00;;;;;;;34.31;35.97;99470.38;1629893;86;21186;-82
2021/07/29 08:33:13;;;;;;;12.43;7.97;;;;;;;34.23;35.76;99467.94;1586264;90;21179;-82
2021/07/29 08:35:40;;;;;;;13.05;8.45;;;;;;;34.17;35.63;99468.86;1612186;88;21078;-82
2021/07/29 08:38:07;;;;;;;15.98;8.40;;;;;;;34.00;35.51;99463.94;1628692;87;21140;-84
2021/07/29 08:40:34;;;;;;;15.85;8.98;;;;;;;33.91;36.00;99468.02;1624696;88;21117;-81
2021/07/29 08:43:03;;;;;;;15.25;7.90;;;;;;;33.88;36.31;99472.58;1602038;89;21585;-83
2021/07/29 08:45:31;;;;;;;10.82;8.25;;;;;;;33.85;36.02;99474.41;1629266;88;21168;-83
2021/07/29 08:47:58;;;;;;;11.35;8.88;;;;;;;33.83;36.27;99472.42;1613206;88;21582;-82
2021/07/29 08:50:25;;;;;;;23.18;8.85;;;;;;;33.57;36.47;99472.97;1629997;88;21064;-82
2021/07/29 08:52:52;;;;;;;13.20;8.40;;;;;;;33.50;36.09;99464.48;1616614;88;21513;-84
2021/07/29 08:55:19;;;;;;;11.25;8.63;;;;;;;33.48;37.08;99460.63;1589507;89;21044;-81
2021/07/29 08:57:46;;;;;;;16.65;9.10;;;;;;;33.47;37.31;99460.30;1644961;86;21376;-84
2021/07/29 09:00:14;;;;;;;14.63;8.68;;;;;;;33.43;37.82;99454.47;1644171;86;21260;-83
2021/07/29 09:02:41;;;;;;;12.85;8.40;;;;;;;33.21;38.18;99456.73;1599396;88;21082;-82
2021/07/29 09:05:18;;;;;;;18.52;8.35;;;;;;;32.91;38.30;99457.01;1636567;87;21096;-82
2021/07/29 09:08:07;;;;;;;12.30;8.10;;;;;;;32.71;39.05;99454.38;1635814;87;21062;-84
2021/07/29 09:10:31;;;;;;;13.65;8.13;;;;;;;32.53;40.02;99445.05;1593446;89;21158;-84
2021/07/29 09:13:16;;;;;;;11.83;8.23;;;;;;;32.44;39.93;99444.09;1594490;90;21076;-83
2021/07/29 09:15:46;;;;;;;13.75;8.20;;;;;;;32.38;40.06;99446.63;1636942;87;21128;-83
2021/07/29 09:18:17;;;;;;;12.00;8.40;;;;;;;32.30;40.03;99444.16;1637075;87;21080;-83
2021/07/29 09:20:45;;;;;;;17.07;8.08;;;;;;;32.33;39.43;99436.91;1631007;87;21040;-83
2021/07/29 09:23:21;;;;;;;10.25;7.92;;;;;;;32.43;39.98;99442.43;1637414;87;21119;-81
2021/07/29 09:26:01;;;;;;;14.30;8.13;;;;;;;32.57;40.27;99434.53;1635394;87;20989;-82
2021/07/29 09:28:37;;;;;;;15.65;8.50;;;;;;;32.84;40.01;99437.13;1639627;87;21021;-81
2021/07/29 09:31:23;;;;;;;15.75;8.83;;;;;;;32.92;40.97;99427.31;1639276;87;21175;-82
2021/07/29 09:34:00;;;;;;;14.87;8.83;;;;;;;32.99;40.71;99424.00;1634087;87;21136;-82
2021/07/29 09:36:31;;;;;;;11.20;8.28;;;;;;;33.15;40.36;99420.80;1639533;87;21395;-82
2021/07/29 09:39:21;;;;;;;21.17;8.35;;;;;;;33.47;39.20;99411.72;1639881;86;21044;-81
2021/07/29 09:41:54;;;;;;;19.85;8.50;;;;;;;33.47;39.37;99418.00;1578247;90;21086;-83
2021/07/29 09:44:42;;;;;;;15.32;9.10;;;;;;;33.32;39.99;99409.34;1555571;91;22009;-81
2021/07/29 09:47:10;;;;;;;17.67;8.23;;;;;;;33.16;40.49;99411.55;1628543;87;20993;-82
2021/07/29 09:49:38;;;;;;;16.35;8.00;;;;;;;33.14;39.97;99414.19;1639972;87;21418;-82
2021/07/29 09:52:06;;;;;;;16.55;8.08;;;;;;;33.36;39.41;99408.67;1637574;87;21080;-80
2021/07/29 09:54:35;;;;;;;13.88;7.95;;;;;;;33.81;38.92;99396.72;1636457;87;21072;-83
2021/07/29 09:57:02;;;;;;;18.05;8.60;;;;;;;34.18;38.24;99392.66;1635211;87;21577;-81
2021/07/29 09:59:32;;;;;;;15.60;8.50;;;;;;;34.44;38.61;99395.56;1636207;87;21025;-82
2021/07/29 10:02:59;;;;;;;14.68;7.90;;;;;;;34.33;38.16;99387.63;1788636;78;22326;-78
2021/07/29 10:05:37;;;;;;;19.17;8.45;;;;;;;34.22;38.11;99387.87;1741235;80;21536;-82
2021/07/29 10:08:06;;;;;;;13.98;7.87;;;;;;;34.08;38.76;99386.88;1755406;80;21168;-82
2021/07/29 10:10:33;;;;;;;17.23;9.20;;;;;;;34.17;39.67;99384.99;1740556;81;21040;-81
2021/07/29 10:13:01;;;;;;;19.67;8.85;;;;;;;34.23;39.16;99385.96;1726706;81;21112;-77
2021/07/29 10:15:45;;;;;;;15.65;7.95;;;;;;;34.24;39.20;99380.81;1727941;81;21513;-82
2021/07/29 10:18:17;;;;;;;14.10;8.73;;;;;;;34.03;39.41;99378.83;1728586;81;21064;-81
2021/07/29 10:20:46;;;;;;;25.25;8.73;;;;;;;33.72;40.00;99385.78;1737286;81;21680;-82
2021/07/29 10:23:18;;;;;;;13.70;8.58;;;;;;;33.45;40.14;99383.27;1729133;80;21012;-82
2021/07/29 10:26:03;;;;;;;19.00;8.88;;;;;;;33.24;40.16;99388.60;1754697;80;21115;-81
2021/07/29 10:28:37;;;;;;;16.97;9.43;;;;;;;33.11;40.83;99388.20;1734954;81;21107;-82
2021/07/29 10:31:03;;;;;;;15.75;9.68;;;;;;;32.99;40.86;99382.59;1758275;81;21048;-83
2021/07/29 10:33:30;;;;;;;15.83;9.50;;;;;;;32.80;41.90;99378.92;1753665;80;21130;-81
2021/07/29 10:35:58;;;;;;;18.60;9.70;;;;;;;32.63;41.93;99384.61;1760285;81;21583;-81
2021/07/29 10:38:42;;;;;;;23.12;11.03;;;;;;;32.47;45.35;99383.73;1753237;80;21091;-81
2021/07/29 10:41:16;;;;;;;31.97;17.37;;;;;;;32.42;48.03;99391.19;1749265;80;21088;-81
2021/07/29 10:43:43;;;;;;;18.23;10.30;;;;;;;32.40;48.00;99390.57;1752936;81;21353;-80
2021/07/29 10:46:11;;;;;;;17.57;10.85;;;;;;;32.35;51.15;99388.50;1756380;80;21086;-83
2021/07/29 10:49:12;;;;;;;13.75;9.78;;;;;;;32.34;56.92;99389.53;1763406;81;21343;-81
2021/07/29 10:51:25;;;;;;;17.73;11.28;;;;;;;32.28;57.37;99382.25;1743427;81;21051;-81
2021/07/29 10:53:53;;;;;;;14.60;9.78;;;;;;;32.15;57.55;99372.77;1748110;80;21406;-83
2021/07/29 10:56:25;;;;;;;17.40;9.60;;;;;;;32.07;54.09;99371.62;1721698;81;22759;-81
2021/07/29 10:58:55;;;;;;;16.32;10.13;;;;;;;32.00;55.28;99369.45;1727087;82;21082;-82
2021/07/29 11:01:22;;;;;;;18.98;9.58;;;;;;;31.95;57.52;99365.45;1725043;82;21048;-81
2021/07/29 11:04:00;;;;;;;17.15;9.55;;;;;;;31.96;57.90;99362.26;1702490;82;21005;-82
2021/07/29 11:06:45;;;;;;;18.70;9.55;;;;;;;31.91;55.39;99362.88;1725409;82;22155;-82
2021/07/29 11:09:21;;;;;;;15.28;9.43;;;;;;;32.03;56.19;99365.79;1728599;81;21135;-83
2021/07/29 11:11:51;;;;;;;13.62;9.33;;;;;;;32.18;55.55;99360.89;1748251;80;21054;-79
2021/07/29 11:14:33;;;;;;;17.65;8.43;;;;;;;32.47;54.15;99357.84;1738827;80;21088;-82
2021/07/29 11:17:02;;;;;;;13.38;7.50;;;;;;;32.69;51.60;99352.36;1743173;80;21014;-82
2021/07/29 11:19:29;;;;;;;12.88;7.05;;;;;;;32.95;47.87;99351.90;1739770;80;21088;-81
2021/07/29 11:22:06;;;;;;;16.23;7.53;;;;;;;33.34;46.12;99340.38;1749951;81;21072;-80
2021/07/29 11:24:33;;;;;;;14.68;7.08;;;;;;;33.71;44.29;99352.73;1737074;81;21244;-83
2021/07/29 11:27:03;;;;;;;14.93;6.87;;;;;;;34.12;44.59;99346.61;1742086;81;21105;-84
2021/07/29 11:29:30;;;;;;;14.23;6.80;;;;;;;34.33;43.76;99339.81;1753818;79;21522;-82
2021/07/29 11:31:57;;;;;;;16.20;7.35;;;;;;;34.26;45.02;99330.87;1755722;81;21092;-80